createdAt,value
2022-08-10T00:01:38.745Z,23.81
2022-08-10T00:04:06.699Z,23.78
2022-08-10T00:06:36.033Z,23.75
2022-08-10T00:09:04.158Z,23.67
2022-08-10T00:11:32.005Z,23.65
2022-08-10T00:13:59.805Z,23.60
2022-08-10T00:16:28.552Z,23.55
2022-08-10T00:18:56.339Z,23.48
2022-08-10T00:21:24.357Z,23.46
2022-08-10T00:23:56.516Z,23.44
2022-08-10T00:26:24.319Z,23.38
2022-08-10T00:28:52.429Z,23.33
2022-08-10T00:31:20.279Z,23.31
2022-08-10T00:33:48.065Z,23.28
2022-08-10T00:36:15.869Z,23.28
2022-08-10T00:38:43.768Z,23.27
2022-08-10T00:41:12.874Z,23.17
2022-08-10T00:43:40.686Z,23.24
2022-08-10T00:46:08.495Z,23.18
2022-08-10T00:48:36.274Z,23.18
2022-08-10T00:51:04.254Z,23.04
2022-08-10T00:53:32.180Z,23.00
2022-08-10T00:57:14.485Z,23.12
2022-08-10T00:58:49.660Z,23.12
2022-08-10T01:02:07.714Z,23.00
2022-08-10T01:04:57.501Z,23.02
2022-08-10T01:07:08.415Z,22.98
2022-08-10T01:09:44.608Z,22.98
2022-08-10T01:12:39.817Z,22.96
2022-08-10T01:15:20.026Z,22.92
2022-08-10T01:17:54.896Z,22.89
2022-08-10T01:20:30.718Z,22.89
2022-08-10T01:23:35.648Z,22.77
2022-08-10T01:26:31.499Z,22.67
2022-08-10T01:29:17.760Z,22.78
2022-08-10T01:31:52.034Z,22.73
2022-08-10T01:34:24.674Z,22.74
2022-08-10T01:36:57.102Z,22.58
2022-08-10T01:39:29.375Z,22.71
2022-08-10T01:41:59.746Z,22.64
2022-08-10T01:44:33.384Z,22.67
2022-08-10T01:47:27.370Z,22.68
2022-08-10T01:50:02.998Z,22.67
2022-08-10T01:52:33.922Z,22.64
2022-08-10T01:55:01.797Z,22.60
2022-08-10T01:57:34.273Z,22.46
2022-08-10T02:00:03.635Z,22.54
2022-08-10T02:02:37.663Z,22.39
2022-08-10T02:05:07.526Z,22.50
2022-08-10T02:07:38.034Z,22.45
2022-08-10T02:10:11.903Z,22.44
2022-08-10T02:12:42.003Z,22.41
2022-08-10T02:15:15.958Z,22.40
2022-08-10T02:17:57.798Z,22.31
2022-08-10T02:20:34.694Z,22.25
2022-08-10T02:23:06.194Z,22.31
2022-08-10T02:25:41.190Z,22.27
2022-08-10T02:28:27.264Z,22.22
2022-08-10T02:31:02.455Z,22.14
2022-08-10T02:33:37.332Z,22.21
2022-08-10T02:36:08.700Z,22.15
2022-08-10T02:38:58.563Z,22.23
2022-08-10T02:45:03.202Z,22.16
2022-08-10T02:45:23.509Z,22.14
2022-08-10T02:47:23.116Z,22.09
2022-08-10T02:49:58.611Z,22.11
2022-08-10T02:52:36.281Z,21.99
2022-08-10T02:55:17.826Z,22.07
2022-08-10T02:58:12.746Z,22.09
2022-08-10T03:00:45.389Z,22.03
2022-08-10T03:03:19.376Z,22.04
2022-08-10T03:05:52.150Z,21.98
2022-08-10T03:08:22.483Z,22.00
2022-08-10T03:10:51.999Z,22.01
2022-08-10T03:13:21.656Z,21.97
2022-08-10T03:15:52.415Z,21.96
2022-08-10T03:18:22.771Z,21.97
2022-08-10T03:20:55.128Z,21.86
2022-08-10T03:23:24.804Z,21.88
2022-08-10T03:25:55.018Z,21.82
2022-08-10T03:28:24.665Z,21.91
2022-08-10T03:30:53.782Z,21.89
2022-08-10T03:33:23.322Z,21.90
2022-08-10T03:36:41.985Z,21.92
2022-08-10T03:38:41.488Z,21.80
2022-08-10T03:43:47.856Z,21.71
2022-08-10T03:46:19.277Z,21.56
2022-08-10T03:48:50.040Z,21.51
2022-08-10T03:51:20.926Z,21.60
2022-08-10T03:54:04.604Z,21.60
2022-08-10T03:56:36.714Z,21.46
2022-08-10T03:59:05.835Z,21.50
2022-08-10T04:02:45.115Z,21.35
2022-08-10T04:04:24.604Z,21.43
2022-08-10T04:06:56.270Z,21.49
2022-08-10T04:09:43.088Z,21.43
2022-08-10T04:12:14.187Z,21.46
2022-08-10T04:14:49.587Z,21.44
2022-08-10T04:17:18.410Z,21.40
2022-08-10T04:20:08.962Z,21.41
2022-08-10T04:22:39.250Z,21.24
2022-08-10T04:25:09.326Z,21.37
2022-08-10T04:27:37.366Z,21.34
2022-08-10T04:30:06.127Z,21.30
2022-08-10T04:32:35.353Z,21.27
2022-08-10T04:35:05.707Z,21.25
2022-08-10T04:37:37.317Z,21.19
2022-08-10T04:40:28.587Z,21.27
2022-08-10T04:43:09.071Z,21.23
2022-08-10T04:45:49.889Z,21.21
2022-08-10T04:48:42.365Z,21.25
2022-08-10T04:51:08.077Z,21.30
2022-08-10T04:54:05.317Z,21.33
2022-08-10T04:56:31.835Z,21.29
2022-08-10T04:59:00.237Z,21.31
2022-08-10T05:02:22.689Z,21.44
2022-08-10T05:04:36.231Z,21.46
2022-08-10T05:07:04.101Z,21.57
2022-08-10T05:09:31.990Z,21.62
2022-08-10T05:12:01.174Z,21.65
2022-08-10T05:14:29.359Z,21.64
2022-08-10T05:16:57.195Z,21.64
2022-08-10T05:20:04.007Z,21.70
2022-08-10T05:22:13.985Z,21.68
2022-08-10T05:24:41.765Z,21.68
2022-08-10T05:27:11.025Z,21.66
2022-08-10T05:29:39.159Z,21.68
2022-08-10T05:32:07.707Z,21.70
2022-08-10T05:34:35.548Z,21.67
2022-08-10T05:37:04.130Z,21.63
2022-08-10T05:39:33.409Z,21.71
2022-08-10T05:42:02.909Z,21.72
2022-08-10T05:44:32.200Z,21.73
2022-08-10T05:47:00.019Z,21.72
2022-08-10T05:49:27.918Z,21.74
2022-08-10T05:51:55.797Z,21.73
2022-08-10T05:54:25.550Z,21.75
2022-08-10T05:56:58.034Z,21.81
2022-08-10T06:00:29.296Z,21.84
2022-08-10T06:02:41.768Z,21.87
2022-08-10T06:05:11.847Z,21.92
2022-08-10T06:07:42.308Z,21.93
2022-08-10T06:10:14.508Z,21.96
2022-08-10T06:13:26.590Z,21.84
2022-08-10T06:15:59.965Z,21.96
2022-08-10T06:18:29.123Z,21.99
2022-08-10T06:20:58.500Z,22.01
2022-08-10T06:23:29.469Z,22.01
2022-08-10T06:26:10.865Z,22.05
2022-08-10T06:28:59.029Z,21.90
2022-08-10T06:31:46.834Z,22.17
2022-08-10T06:34:21.973Z,22.23
2022-08-10T06:36:50.821Z,22.25
2022-08-10T06:39:35.475Z,22.31
2022-08-10T06:42:17.675Z,22.33
2022-08-10T06:44:55.543Z,22.39
2022-08-10T06:47:26.599Z,22.45
2022-08-10T06:50:02.676Z,22.50
2022-08-10T06:52:34.274Z,22.54
2022-08-10T06:55:05.264Z,22.59
2022-08-10T06:57:38.486Z,22.54
2022-08-10T07:00:09.260Z,22.66
2022-08-10T07:02:45.341Z,22.72
2022-08-10T07:05:20.039Z,22.75
2022-08-10T07:07:48.956Z,22.78
2022-08-10T07:10:20.451Z,22.87
2022-08-10T07:12:49.512Z,22.64
2022-08-10T07:15:18.589Z,22.87
2022-08-10T07:17:47.887Z,22.84
2022-08-10T07:20:19.451Z,22.98
2022-08-10T07:23:08.361Z,23.04
2022-08-10T07:25:38.988Z,23.07
2022-08-10T07:28:08.299Z,23.02
2022-08-10T07:30:39.539Z,23.12
2022-08-10T07:33:09.474Z,23.15
2022-08-10T07:35:43.034Z,23.19
2022-08-10T07:38:17.002Z,23.12
2022-08-10T07:40:46.286Z,23.27
2022-08-10T07:43:16.926Z,23.34
2022-08-10T07:45:47.208Z,23.29
2022-08-10T07:48:17.884Z,23.38
2022-08-10T07:50:48.819Z,23.42
2022-08-10T07:53:22.519Z,23.44
2022-08-10T07:56:05.642Z,23.49
2022-08-10T07:58:46.397Z,23.51
2022-08-10T08:01:22.329Z,23.55
2022-08-10T08:04:10.919Z,23.55
2022-08-10T08:06:42.444Z,23.62
2022-08-10T08:09:11.290Z,23.53
2022-08-10T08:11:40.823Z,23.66
2022-08-10T08:14:10.210Z,23.62
2022-08-10T08:16:40.455Z,23.77
2022-08-10T08:19:26.613Z,23.83
2022-08-10T08:24:06.053Z,23.91
2022-08-10T08:24:47.821Z,23.94
2022-08-10T08:27:21.038Z,23.98
2022-08-10T08:29:50.769Z,24.00
2022-08-10T08:32:22.251Z,24.06
2022-08-10T08:34:53.895Z,24.06
2022-08-10T08:38:31.604Z,24.00
2022-08-10T08:40:16.215Z,24.10
2022-08-10T08:43:16.704Z,24.13
2022-08-10T08:46:04.521Z,24.18
2022-08-10T08:48:56.412Z,24.22
2022-08-10T08:52:09.382Z,24.27
2022-08-10T08:54:37.999Z,24.28
2022-08-10T08:57:12.296Z,24.34
2022-08-10T09:00:02.203Z,24.45
2022-08-10T09:02:42.174Z,24.47
2022-08-10T09:05:24.777Z,24.44
2022-08-10T09:08:15.149Z,24.60
2022-08-10T09:10:53.616Z,24.65
2022-08-10T09:13:29.372Z,24.65
2022-08-10T09:16:21.773Z,24.68
2022-08-10T09:18:54.346Z,24.74
2022-08-10T09:21:29.225Z,24.80
2022-08-10T09:24:05.861Z,24.84
2022-08-10T09:26:43.815Z,24.87
2022-08-10T09:29:16.088Z,24.88
2022-08-10T09:31:55.930Z,24.83
2022-08-10T09:36:20.698Z,24.87
2022-08-10T09:38:01.734Z,24.89
2022-08-10T09:40:58.919Z,24.93
2022-08-10T09:43:41.394Z,25.01
2022-08-10T09:46:21.427Z,25.00
2022-08-10T09:49:03.071Z,25.09
2022-08-10T09:51:47.375Z,25.23
2022-08-10T09:54:28.273Z,25.37
2022-08-10T09:57:43.291Z,25.41
2022-08-10T10:00:01.332Z,25.31
2022-08-10T10:02:43.207Z,25.38
2022-08-10T10:05:22.741Z,25.50
2022-08-10T10:07:58.399Z,25.56
2022-08-10T10:10:36.325Z,25.57
2022-08-10T10:13:52.925Z,25.67
2022-08-10T10:16:26.964Z,25.72
2022-08-10T10:19:05.761Z,25.78
2022-08-10T10:21:55.625Z,25.97
2022-08-10T10:24:34.161Z,26.08
2022-08-10T10:27:16.377Z,26.25
2022-08-10T10:29:56.748Z,26.42
2022-08-10T10:32:40.092Z,26.54
2022-08-10T10:35:16.627Z,26.94
2022-08-10T10:38:01.275Z,27.25
2022-08-10T10:40:38.812Z,27.77
2022-08-10T10:43:16.529Z,28.20
2022-08-10T10:45:55.064Z,28.52
2022-08-10T10:48:33.968Z,28.67
2022-08-10T10:51:10.834Z,29.02
2022-08-10T10:53:48.620Z,29.33
2022-08-10T10:56:21.771Z,29.49
2022-08-10T10:59:54.043Z,29.55
2022-08-10T11:02:00.769Z,29.73
2022-08-10T11:04:41.471Z,30.03
2022-08-10T11:07:21.940Z,30.23
2022-08-10T11:10:09.431Z,30.65
2022-08-10T11:13:03.794Z,30.82
2022-08-10T11:15:58.589Z,30.97
2022-08-10T11:18:34.245Z,31.01
2022-08-10T11:21:13.567Z,31.22
2022-08-10T11:24:47.146Z,31.46
2022-08-10T11:26:53.584Z,31.61
2022-08-10T11:29:26.439Z,31.81
2022-08-10T11:32:01.123Z,31.65
2022-08-10T11:34:48.475Z,31.61
2022-08-10T11:38:29.620Z,32.01
2022-08-10T11:40:36.544Z,32.09
2022-08-10T11:43:14.345Z,32.08
2022-08-10T11:45:51.563Z,32.10
2022-08-10T11:48:53.038Z,32.27
2022-08-10T11:51:23.869Z,32.52
2022-08-10T11:54:03.317Z,32.71
2022-08-10T11:56:35.306Z,32.87
2022-08-10T11:59:20.764Z,33.16
2022-08-10T12:01:51.511Z,33.29
2022-08-10T12:04:21.436Z,33.36
2022-08-10T12:06:56.324Z,33.37
2022-08-10T12:10:05.016Z,33.71
2022-08-10T12:12:17.484Z,33.85
2022-08-10T12:14:54.314Z,33.93
2022-08-10T12:17:30.085Z,33.65
2022-08-10T12:20:05.410Z,33.64
2022-08-10T12:22:39.677Z,33.77
2022-08-10T12:25:54.996Z,33.78
2022-08-10T12:28:10.636Z,34.23
2022-08-10T12:30:47.641Z,34.31
2022-08-10T12:33:23.545Z,34.16
2022-08-10T12:36:18.011Z,34.42
2022-08-10T12:38:54.002Z,34.41
2022-08-10T12:41:45.031Z,34.37
2022-08-10T12:44:20.106Z,34.36
2022-08-10T12:46:56.118Z,34.46
2022-08-10T12:49:31.619Z,34.26
2022-08-10T12:52:04.030Z,34.37
2022-08-10T12:54:36.707Z,34.29
2022-08-10T12:57:10.046Z,34.59
2022-08-10T12:59:43.184Z,34.74
2022-08-10T13:02:15.146Z,34.81
2022-08-10T13:04:44.267Z,34.46
2022-08-10T13:08:03.723Z,34.42
2022-08-10T13:10:03.938Z,34.27
2022-08-10T13:12:40.333Z,34.11
2022-08-10T13:15:25.348Z,34.17
2022-08-10T13:18:17.898Z,34.30
2022-08-10T13:20:52.451Z,34.04
2022-08-10T13:23:24.531Z,33.98
2022-08-10T13:25:56.097Z,34.05
2022-08-10T13:28:39.445Z,33.92
2022-08-10T13:31:16.802Z,34.00
2022-08-10T13:34:41.522Z,34.01
2022-08-10T13:36:39.111Z,33.78
2022-08-10T13:39:08.068Z,33.69
2022-08-10T13:41:40.791Z,33.59
2022-08-10T13:44:13.859Z,33.53
2022-08-10T13:46:49.163Z,33.46
2022-08-10T13:49:18.843Z,33.37
2022-08-10T13:51:56.422Z,33.18
2022-08-10T13:54:28.457Z,33.13
2022-08-10T13:56:57.701Z,32.99
2022-08-10T14:00:35.419Z,33.00
2022-08-10T14:02:26.050Z,33.12
2022-08-10T14:04:56.826Z,33.06
2022-08-10T14:07:26.108Z,33.05
2022-08-10T14:09:59.343Z,32.93
2022-08-10T14:12:33.600Z,32.91
2022-08-10T14:15:04.577Z,33.04
2022-08-10T14:17:34.221Z,33.11
2022-08-10T14:20:12.769Z,33.09
2022-08-10T14:22:42.720Z,33.12
2022-08-10T14:25:12.573Z,32.96
2022-08-10T14:28:02.158Z,32.78
2022-08-10T14:30:34.097Z,32.65
2022-08-10T14:33:04.643Z,32.47
2022-08-10T14:36:21.250Z,32.29
2022-08-10T14:38:28.502Z,32.14
2022-08-10T14:40:59.878Z,32.26
2022-08-10T14:43:30.297Z,32.24
2022-08-10T14:46:05.638Z,32.29
2022-08-10T14:48:40.126Z,32.07
2022-08-10T14:51:10.202Z,32.26
2022-08-10T14:53:42.180Z,32.15
2022-08-10T14:56:13.668Z,32.20
2022-08-10T14:59:05.769Z,32.20
2022-08-10T15:02:00.691Z,32.05
2022-08-10T15:04:28.833Z,32.04
2022-08-10T15:07:01.292Z,32.25
2022-08-10T15:10:01.612Z,32.33
2022-08-10T15:12:26.652Z,32.15
2022-08-10T15:15:00.844Z,32.19
2022-08-10T15:17:36.878Z,32.29
2022-08-10T15:20:15.715Z,32.28
2022-08-10T15:22:50.316Z,32.21
2022-08-10T15:25:24.315Z,32.27
2022-08-10T15:27:56.999Z,32.23
2022-08-10T15:30:30.872Z,32.30
2022-08-10T15:34:03.271Z,32.26
2022-08-10T15:36:32.413Z,32.15
2022-08-10T15:39:03.834Z,32.17
2022-08-10T15:41:58.540Z,32.00
2022-08-10T15:44:37.748Z,31.79
2022-08-10T15:47:09.207Z,31.75
2022-08-10T15:49:48.904Z,31.90
2022-08-10T15:52:59.905Z,31.91
2022-08-10T15:55:44.037Z,31.87
2022-08-10T15:58:13.861Z,31.71
2022-08-10T16:00:55.122Z,31.69
2022-08-10T16:03:27.150Z,31.66
2022-08-10T16:06:02.565Z,31.63
2022-08-10T16:08:55.792Z,31.62
2022-08-10T16:11:37.584Z,31.52
2022-08-10T16:14:22.631Z,31.38
2022-08-10T16:16:55.795Z,31.60
2022-08-10T16:19:26.215Z,31.55
2022-08-10T16:22:34.253Z,31.43
2022-08-10T16:24:53.668Z,31.55
2022-08-10T16:27:24.815Z,31.50
2022-08-10T16:29:59.367Z,31.42
2022-08-10T16:32:29.994Z,31.34
2022-08-10T16:35:00.385Z,31.36
2022-08-10T16:37:57.778Z,31.26
2022-08-10T16:40:26.492Z,31.27
2022-08-10T16:42:55.792Z,31.28
2022-08-10T16:45:31.815Z,31.18
2022-08-10T16:48:01.025Z,31.11
2022-08-10T16:50:30.730Z,31.15
2022-08-10T16:53:03.168Z,31.03
2022-08-10T16:55:47.595Z,31.06
2022-08-10T16:58:20.698Z,31.05
2022-08-10T17:00:51.091Z,31.05
2022-08-10T17:04:05.622Z,30.98
2022-08-10T17:06:20.362Z,30.86
2022-08-10T17:08:52.777Z,30.91
2022-08-10T17:11:23.308Z,30.83
2022-08-10T17:13:51.521Z,30.67
2022-08-10T17:16:21.660Z,29.94
2022-08-10T17:18:50.405Z,30.52
2022-08-10T17:21:21.755Z,30.41
2022-08-10T17:23:53.886Z,30.38
2022-08-10T17:26:35.397Z,30.32
2022-08-10T17:29:09.060Z,30.30
2022-08-10T17:31:54.984Z,30.23
2022-08-10T17:34:29.400Z,30.13
2022-08-10T17:36:59.099Z,30.11
2022-08-10T17:39:33.347Z,29.98
2022-08-10T17:42:03.211Z,29.90
2022-08-10T17:44:36.889Z,29.80
2022-08-10T17:47:10.550Z,29.74
2022-08-10T17:49:40.977Z,29.53
2022-08-10T17:52:11.422Z,29.58
2022-08-10T17:54:44.288Z,29.54
2022-08-10T17:57:17.895Z,29.49
2022-08-10T17:59:47.794Z,29.42
2022-08-10T18:02:18.937Z,29.37
2022-08-10T18:04:49.662Z,29.33
2022-08-10T18:07:19.096Z,29.19
2022-08-10T18:09:52.803Z,29.22
2022-08-10T18:12:31.976Z,29.18
2022-08-10T18:15:11.930Z,29.04
2022-08-10T18:17:44.499Z,29.09
2022-08-10T18:20:15.029Z,29.04
2022-08-10T18:22:47.415Z,29.02
2022-08-10T18:25:23.947Z,28.93
2022-08-10T18:28:03.990Z,28.70
2022-08-10T18:30:37.274Z,28.90
2022-08-10T18:33:11.966Z,28.80
2022-08-10T18:35:40.609Z,28.82
2022-08-10T18:38:09.939Z,28.77
2022-08-10T18:40:45.706Z,28.74
2022-08-10T18:44:06.537Z,28.62
2022-08-10T18:46:11.436Z,28.57
2022-08-10T18:48:43.376Z,28.60
2022-08-10T18:51:13.044Z,28.49
2022-08-10T18:53:48.149Z,28.25
2022-08-10T18:56:29.444Z,28.31
2022-08-10T18:59:09.672Z,28.26
2022-08-10T19:02:01.234Z,28.05
2022-08-10T19:04:44.474Z,28.12
2022-08-10T19:07:40.134Z,28.02
2022-08-10T19:10:15.224Z,27.97
2022-08-10T19:12:52.827Z,27.93
2022-08-10T19:15:28.992Z,27.96
2022-08-10T19:18:08.008Z,27.93
2022-08-10T19:20:42.279Z,27.89
2022-08-10T19:23:39.364Z,27.83
2022-08-10T19:26:43.861Z,27.81
2022-08-10T19:30:09.221Z,27.79
2022-08-10T19:32:25.541Z,27.47
2022-08-10T19:35:02.369Z,27.70
2022-08-10T19:37:38.203Z,27.67
2022-08-10T19:40:21.600Z,27.64
2022-08-10T19:43:20.583Z,27.67
2022-08-10T19:46:05.531Z,27.61
2022-08-10T19:48:42.619Z,27.57
2022-08-10T19:51:17.518Z,27.44
2022-08-10T19:53:54.444Z,27.51
2022-08-10T19:56:35.299Z,27.49
2022-08-10T19:59:10.241Z,27.44
2022-08-10T20:01:54.994Z,27.40
2022-08-10T20:04:31.921Z,27.30
2022-08-10T20:07:13.706Z,27.36
2022-08-10T20:09:47.694Z,27.33
2022-08-10T20:12:25.025Z,27.28
2022-08-10T20:15:05.351Z,27.28
2022-08-10T20:17:52.718Z,27.24
2022-08-10T20:20:31.243Z,27.20
2022-08-10T20:23:08.877Z,27.16
2022-08-10T20:25:37.109Z,27.01
2022-08-10T20:28:14.385Z,27.02
2022-08-10T20:30:46.376Z,26.99
2022-08-10T20:33:24.222Z,27.04
2022-08-10T20:36:00.336Z,26.98
2022-08-10T20:38:34.241Z,26.88
2022-08-10T20:41:19.262Z,26.84
2022-08-10T20:43:57.602Z,26.83
2022-08-10T20:46:31.014Z,26.80
2022-08-10T20:49:05.307Z,26.76
2022-08-10T20:51:58.041Z,26.73
2022-08-10T20:54:32.503Z,26.72
2022-08-10T20:57:53.556Z,26.69
2022-08-10T21:00:10.862Z,26.65
2022-08-10T21:03:06.940Z,26.61
2022-08-10T21:05:50.028Z,26.57
2022-08-10T21:08:30.074Z,26.53
2022-08-10T21:11:06.048Z,26.50
2022-08-10T21:13:58.188Z,26.47
2022-08-10T21:16:38.040Z,26.45
2022-08-10T21:19:53.715Z,26.44
2022-08-10T21:22:28.980Z,26.42
2022-08-10T21:25:02.185Z,26.39
2022-08-10T21:27:49.062Z,26.36
2022-08-10T21:30:36.839Z,26.32
2022-08-10T21:33:11.937Z,26.26
2022-08-10T21:35:44.387Z,26.22
2022-08-10T21:38:24.413Z,26.20
2022-08-10T21:41:56.508Z,26.15
2022-08-10T21:45:08.008Z,26.10
2022-08-10T21:48:16.516Z,25.99
2022-08-10T21:51:14.754Z,25.93
2022-08-10T21:54:11.662Z,25.92
2022-08-10T21:57:08.259Z,25.86
2022-08-10T21:59:58.843Z,25.79
2022-08-10T22:02:50.421Z,25.76
2022-08-10T22:05:55.216Z,25.68
2022-08-10T22:08:44.548Z,25.58
2022-08-10T22:11:37.797Z,25.59
2022-08-10T22:14:25.798Z,25.57
2022-08-10T22:18:03.440Z,25.55
2022-08-10T22:20:27.076Z,25.46
2022-08-10T22:23:28.927Z,25.43
2022-08-10T22:26:25.230Z,25.45
2022-08-10T22:29:14.298Z,25.41
2022-08-10T22:32:15.280Z,25.34
2022-08-10T22:35:15.982Z,25.26
2022-08-10T22:38:14.256Z,25.27
2022-08-10T22:41:03.426Z,25.19
2022-08-10T22:43:51.864Z,25.10
2022-08-10T22:46:42.425Z,25.02
2022-08-10T22:49:10.068Z,24.99
2022-08-10T22:51:48.513Z,24.95
2022-08-10T22:54:40.191Z,24.92
2022-08-10T22:57:30.621Z,24.82
2022-08-10T22:59:59.023Z,24.83
2022-08-10T23:02:34.948Z,24.79
2022-08-10T23:05:09.172Z,24.70
2022-08-10T23:07:46.696Z,24.67
2022-08-10T23:10:16.695Z,24.64
2022-08-10T23:12:50.656Z,24.60
2022-08-10T23:15:43.656Z,24.63
2022-08-10T23:18:36.508Z,24.58
2022-08-10T23:21:05.628Z,24.54
2022-08-10T23:23:40.241Z,24.51
2022-08-10T23:26:12.838Z,24.50
2022-08-10T23:29:04.234Z,24.52
2022-08-10T23:32:00.640Z,24.44
2022-08-10T23:34:24.041Z,24.49
2022-08-10T23:36:53.804Z,24.53
2022-08-10T23:39:29.150Z,24.49
2022-08-10T23:42:06.951Z,24.41
2022-08-10T23:44:39.085Z,24.23
2022-08-10T23:47:08.523Z,24.30
2022-08-10T23:49:39.669Z,24.27
2022-08-10T23:52:13.011Z,24.29
2022-08-10T23:54:45.993Z,24.30
2022-08-10T23:57:18.300Z,24.22
2022-08-10T23:59:56.951Z,24.19
